createdAt,value
2023-01-09T00:01:42.061Z,96.14
2023-01-09T00:04:09.975Z,96.12
2023-01-09T00:06:37.519Z,96.11
2023-01-09T00:09:04.793Z,96.03
2023-01-09T00:11:32.264Z,95.90
2023-01-09T00:13:59.697Z,95.97
2023-01-09T00:16:26.912Z,95.75
2023-01-09T00:18:54.868Z,96.17
2023-01-09T00:21:22.569Z,95.95
2023-01-09T00:23:50.169Z,96.19
2023-01-09T00:26:20.131Z,96.33
2023-01-09T00:28:48.110Z,96.60
2023-01-09T00:31:15.898Z,96.35
2023-01-09T00:33:45.987Z,96.33
2023-01-09T00:36:13.950Z,96.49
2023-01-09T00:38:41.425Z,96.53
2023-01-09T00:41:11.940Z,96.57
2023-01-09T00:43:42.663Z,96.35
2023-01-09T00:46:10.789Z,96.54
2023-01-09T00:48:41.459Z,96.31
2023-01-09T00:51:09.582Z,96.79
2023-01-09T00:53:40.229Z,96.47
2023-01-09T00:56:12.650Z,96.38
2023-01-09T00:58:40.354Z,96.32
2023-01-09T01:01:08.132Z,96.43
2023-01-09T01:03:35.337Z,96.71
2023-01-09T01:06:20.103Z,96.67
2023-01-09T01:08:47.649Z,96.68
2023-01-09T01:11:15.539Z,96.71
2023-01-09T01:13:44.021Z,96.95
2023-01-09T01:16:12.946Z,96.92
2023-01-09T01:18:40.411Z,97.26
2023-01-09T01:21:10.697Z,97.17
2023-01-09T01:23:39.194Z,97.39
2023-01-09T01:26:10.125Z,97.68
2023-01-09T01:28:37.506Z,97.43
2023-01-09T01:31:05.209Z,97.87
2023-01-09T01:33:32.696Z,97.96
2023-01-09T01:36:09.051Z,97.46
2023-01-09T01:38:37.139Z,97.77
2023-01-09T01:41:04.892Z,98.13
2023-01-09T01:43:51.995Z,98.12
2023-01-09T01:46:20.459Z,98.24
2023-01-09T01:48:49.428Z,97.98
2023-01-09T01:51:19.312Z,98.06
2023-01-09T01:53:50.468Z,97.99
2023-01-09T01:56:21.825Z,97.91
2023-01-09T01:58:51.477Z,98.55
2023-01-09T02:01:19.670Z,98.70
2023-01-09T02:03:47.704Z,98.45
2023-01-09T02:06:16.249Z,98.71
2023-01-09T02:08:43.880Z,98.56
2023-01-09T02:11:13.186Z,98.39
2023-01-09T02:13:41.032Z,98.42
2023-01-09T02:16:23.813Z,98.59
2023-01-09T02:18:55.523Z,98.73
2023-01-09T02:21:35.120Z,98.60
2023-01-09T02:24:37.676Z,98.54
2023-01-09T02:27:20.221Z,98.54
2023-01-09T02:30:23.348Z,98.77
2023-01-09T02:33:05.547Z,98.37
2023-01-09T02:35:48.913Z,98.64
2023-01-09T02:38:24.867Z,98.36
2023-01-09T02:41:00.021Z,98.17
2023-01-09T02:43:27.654Z,98.28
2023-01-09T02:45:54.816Z,98.29
2023-01-09T02:48:21.875Z,97.98
2023-01-09T02:50:58.964Z,97.83
2023-01-09T02:54:03.263Z,98.15
2023-01-09T02:56:51.235Z,97.92
2023-01-09T02:59:30.737Z,98.17
2023-01-09T03:02:15.064Z,98.10
2023-01-09T03:04:54.599Z,98.24
2023-01-09T03:07:29.236Z,98.14
2023-01-09T03:10:01.869Z,97.78
2023-01-09T03:12:32.819Z,97.87
2023-01-09T03:15:03.078Z,97.77
2023-01-09T03:17:36.086Z,97.91
2023-01-09T03:20:05.558Z,97.74
2023-01-09T03:22:32.577Z,97.65
2023-01-09T03:24:59.629Z,97.36
2023-01-09T03:27:27.068Z,97.37
2023-01-09T03:29:56.678Z,97.26
2023-01-09T03:32:23.713Z,97.20
2023-01-09T03:34:50.903Z,97.07
2023-01-09T03:37:17.859Z,97.13
2023-01-09T03:39:44.909Z,96.96
2023-01-09T03:42:12.238Z,96.93
2023-01-09T03:44:39.191Z,96.88
2023-01-09T03:47:06.225Z,96.80
2023-01-09T03:49:33.304Z,96.76
2023-01-09T03:52:00.768Z,96.73
2023-01-09T03:54:28.051Z,96.67
2023-01-09T03:56:55.161Z,96.65
2023-01-09T03:59:22.279Z,96.36
2023-01-09T04:01:49.377Z,96.57
2023-01-09T04:04:16.749Z,96.32
2023-01-09T04:06:43.727Z,96.10
2023-01-09T04:09:11.449Z,96.10
2023-01-09T04:11:38.516Z,96.01
2023-01-09T04:14:05.828Z,95.74
2023-01-09T04:16:32.922Z,95.66
2023-01-09T04:19:00.796Z,95.46
2023-01-09T04:21:28.018Z,95.22
2023-01-09T04:23:55.412Z,95.35
2023-01-09T04:26:22.710Z,95.37
2023-01-09T04:28:50.410Z,95.33
2023-01-09T04:31:17.699Z,95.35
2023-01-09T04:33:44.776Z,95.38
2023-01-09T04:36:12.749Z,95.46
2023-01-09T04:38:39.886Z,95.55
2023-01-09T04:41:07.140Z,95.71
2023-01-09T04:43:34.112Z,95.74
2023-01-09T04:46:01.224Z,95.70
2023-01-09T04:48:28.401Z,95.98
2023-01-09T04:50:55.442Z,96.12
2023-01-09T04:53:22.608Z,96.10
2023-01-09T04:55:49.971Z,96.08
2023-01-09T04:58:16.881Z,96.21
2023-01-09T05:00:44.497Z,96.21
2023-01-09T05:03:11.768Z,96.39
2023-01-09T05:05:38.761Z,96.24
2023-01-09T05:08:06.073Z,96.57
2023-01-09T05:10:33.319Z,96.45
2023-01-09T05:13:00.330Z,96.35
2023-01-09T05:15:28.450Z,96.32
2023-01-09T05:17:55.629Z,96.55
2023-01-09T05:20:22.612Z,96.56
2023-01-09T05:22:49.595Z,96.57
2023-01-09T05:25:16.892Z,96.63
2023-01-09T05:27:46.374Z,96.55
2023-01-09T05:30:18.151Z,96.40
2023-01-09T05:32:45.528Z,96.48
2023-01-09T05:35:13.133Z,96.65
2023-01-09T05:37:40.237Z,96.47
2023-01-09T05:40:08.862Z,96.50
2023-01-09T05:42:35.980Z,96.59
2023-01-09T05:45:03.391Z,96.61
2023-01-09T05:47:30.878Z,96.48
2023-01-09T05:49:58.003Z,96.72
2023-01-09T05:52:25.233Z,96.50
2023-01-09T05:54:52.645Z,96.46
2023-01-09T05:57:19.776Z,96.59
2023-01-09T05:59:46.937Z,96.67
2023-01-09T06:02:17.049Z,96.63
2023-01-09T06:04:44.683Z,96.57
2023-01-09T06:07:15.446Z,96.40
2023-01-09T06:09:45.484Z,96.39
2023-01-09T06:12:12.613Z,96.50
2023-01-09T06:14:39.575Z,96.52
2023-01-09T06:17:07.546Z,96.64
2023-01-09T06:19:34.525Z,96.42
2023-01-09T06:22:01.488Z,96.52
2023-01-09T06:24:28.626Z,96.44
2023-01-09T06:26:55.586Z,96.78
2023-01-09T06:29:22.850Z,96.58
2023-01-09T06:31:50.417Z,96.53
2023-01-09T06:34:17.609Z,96.79
2023-01-09T06:36:44.688Z,96.79
2023-01-09T06:39:14.142Z,96.73
2023-01-09T06:41:41.241Z,97.18
2023-01-09T06:44:08.237Z,97.01
2023-01-09T06:46:35.205Z,96.95
2023-01-09T06:49:02.309Z,96.98
2023-01-09T06:51:29.274Z,96.72
2023-01-09T06:53:56.379Z,96.82
2023-01-09T06:56:24.007Z,96.96
2023-01-09T06:58:51.316Z,96.87
2023-01-09T07:01:18.606Z,96.83
2023-01-09T07:03:45.980Z,96.84
2023-01-09T07:06:13.106Z,96.72
2023-01-09T07:08:40.404Z,96.81
2023-01-09T07:11:07.780Z,96.61
2023-01-09T07:13:34.721Z,96.43
2023-01-09T07:16:03.446Z,96.31
2023-01-09T07:18:30.586Z,96.34
2023-01-09T07:20:57.749Z,95.94
2023-01-09T07:23:24.880Z,95.89
2023-01-09T07:25:53.910Z,95.77
2023-01-09T07:28:20.928Z,95.75
2023-01-09T07:30:48.236Z,95.48
2023-01-09T07:33:15.332Z,95.71
2023-01-09T07:35:42.687Z,95.48
2023-01-09T07:38:10.123Z,95.39
2023-01-09T07:40:37.161Z,95.31
2023-01-09T07:43:04.378Z,95.11
2023-01-09T07:45:31.461Z,94.88
2023-01-09T07:47:59.913Z,94.75
2023-01-09T07:50:27.197Z,94.83
2023-01-09T07:52:54.312Z,94.42
2023-01-09T07:55:21.467Z,94.61
2023-01-09T07:57:52.341Z,94.18
2023-01-09T08:00:21.753Z,94.10
2023-01-09T08:02:52.024Z,94.07
2023-01-09T08:05:20.239Z,93.90
2023-01-09T08:07:50.215Z,93.88
2023-01-09T08:10:19.995Z,93.70
2023-01-09T08:12:47.874Z,93.46
2023-01-09T08:15:15.792Z,92.96
2023-01-09T08:17:44.993Z,92.99
2023-01-09T08:20:15.948Z,93.20
2023-01-09T08:22:43.991Z,92.93
2023-01-09T08:25:12.928Z,92.85
2023-01-09T08:27:40.560Z,92.65
2023-01-09T08:30:09.861Z,92.47
2023-01-09T08:32:38.413Z,92.56
2023-01-09T08:35:06.206Z,92.53
2023-01-09T08:37:33.321Z,92.30
2023-01-09T08:40:00.614Z,92.25
2023-01-09T08:42:45.440Z,91.96
2023-01-09T08:45:33.324Z,91.40
2023-01-09T08:48:00.689Z,91.35
2023-01-09T08:50:28.005Z,91.29
2023-01-09T08:52:55.078Z,91.06
2023-01-09T08:55:22.095Z,90.91
2023-01-09T08:57:53.287Z,90.60
2023-01-09T09:00:22.762Z,89.90
2023-01-09T09:02:54.104Z,89.62
2023-01-09T09:05:22.889Z,88.93
2023-01-09T09:07:54.240Z,88.93
2023-01-09T09:10:22.026Z,88.90
2023-01-09T09:12:52.115Z,88.98
2023-01-09T09:15:24.231Z,89.17
2023-01-09T09:17:53.743Z,89.24
2023-01-09T09:20:21.731Z,89.14
2023-01-09T09:22:50.533Z,89.37
2023-01-09T09:25:18.394Z,89.53
2023-01-09T09:27:45.948Z,89.16
2023-01-09T09:30:16.100Z,89.50
2023-01-09T09:32:43.375Z,89.34
2023-01-09T09:35:11.260Z,89.25
2023-01-09T09:37:39.362Z,89.56
2023-01-09T09:40:17.828Z,89.33
2023-01-09T09:43:23.116Z,89.03
2023-01-09T09:45:58.959Z,88.73
2023-01-09T09:48:37.864Z,88.69
2023-01-09T09:51:28.819Z,88.36
2023-01-09T09:54:01.608Z,88.77
2023-01-09T09:56:32.027Z,88.85
2023-01-09T09:59:04.402Z,89.12
2023-01-09T10:01:37.885Z,89.13
2023-01-09T10:04:10.899Z,89.15
2023-01-09T10:06:43.524Z,89.11
2023-01-09T10:09:18.671Z,89.61
2023-01-09T10:11:53.106Z,89.46
2023-01-09T10:14:24.433Z,89.61
2023-01-09T10:17:06.780Z,89.69
2023-01-09T10:19:50.052Z,89.93
2023-01-09T10:22:26.261Z,89.96
2023-01-09T10:25:12.788Z,90.13
2023-01-09T10:27:55.205Z,90.19
2023-01-09T10:30:34.078Z,90.46
2023-01-09T10:33:15.041Z,90.65
2023-01-09T10:35:54.183Z,90.84
2023-01-09T10:38:25.746Z,90.78
2023-01-09T10:41:01.434Z,90.79
2023-01-09T10:43:35.822Z,91.16
2023-01-09T10:46:07.222Z,91.20
2023-01-09T10:48:36.597Z,91.64
2023-01-09T10:51:05.044Z,91.96
2023-01-09T10:53:38.908Z,92.30
2023-01-09T10:56:14.698Z,92.46
2023-01-09T10:58:42.647Z,92.76
2023-01-09T11:01:10.568Z,93.09
2023-01-09T11:03:39.105Z,93.43
2023-01-09T11:06:16.084Z,93.34
2023-01-09T11:08:46.537Z,93.40
2023-01-09T11:11:16.494Z,93.70
2023-01-09T11:13:48.742Z,94.08
2023-01-09T11:16:22.150Z,94.01
2023-01-09T11:18:55.692Z,94.20
2023-01-09T11:21:38.326Z,94.54
2023-01-09T11:24:34.241Z,94.68
2023-01-09T11:27:23.931Z,94.99
2023-01-09T11:30:08.550Z,95.11
2023-01-09T11:32:36.780Z,95.38
2023-01-09T11:35:05.899Z,95.54
2023-01-09T11:37:34.290Z,95.40
2023-01-09T11:40:02.733Z,95.80
2023-01-09T11:42:48.031Z,96.07
2023-01-09T11:45:20.741Z,96.02
2023-01-09T11:47:48.740Z,96.08
2023-01-09T11:50:26.122Z,96.29
2023-01-09T11:53:16.234Z,96.30
2023-01-09T11:55:45.044Z,96.38
2023-01-09T11:58:16.494Z,96.64
2023-01-09T12:00:54.091Z,96.46
2023-01-09T12:03:39.280Z,96.56
2023-01-09T12:06:14.319Z,97.05
2023-01-09T12:08:56.717Z,97.06
2023-01-09T12:11:35.237Z,97.60
2023-01-09T12:14:20.685Z,97.60
2023-01-09T12:17:04.525Z,97.53
2023-01-09T12:19:55.849Z,97.69
2023-01-09T12:22:33.462Z,97.96
2023-01-09T12:25:23.088Z,98.26
2023-01-09T12:28:04.829Z,98.60
2023-01-09T12:30:52.204Z,98.77
2023-01-09T12:33:25.380Z,99.24
2023-01-09T12:36:09.480Z,99.10
2023-01-09T12:38:49.336Z,99.47
2023-01-09T12:41:44.606Z,99.65
2023-01-09T12:44:51.652Z,99.83
2023-01-09T12:47:40.071Z,99.91
2023-01-09T12:50:20.181Z,100.00
2023-01-09T12:52:55.226Z,100.00
2023-01-09T12:55:26.818Z,100.00
2023-01-09T12:57:57.308Z,100.00
2023-01-09T13:00:30.243Z,100.00
2023-01-09T13:03:12.120Z,100.00
2023-01-09T13:05:45.659Z,100.00
2023-01-09T13:08:19.553Z,100.00
2023-01-09T13:10:50.018Z,100.00
2023-01-09T13:13:21.870Z,100.00
2023-01-09T13:15:52.441Z,100.00
2023-01-09T13:18:28.833Z,100.00
2023-01-09T13:20:57.129Z,100.00
2023-01-09T13:23:31.676Z,100.00
2023-01-09T13:26:03.773Z,100.00
2023-01-09T13:28:33.511Z,100.00
2023-01-09T13:31:28.540Z,100.00
2023-01-09T13:33:58.814Z,100.00
2023-01-09T13:36:30.180Z,100.00
2023-01-09T13:39:00.091Z,100.00
2023-01-09T13:41:45.987Z,100.00
2023-01-09T13:44:28.610Z,100.00
2023-01-09T13:46:57.948Z,100.00
2023-01-09T13:50:06.914Z,100.00
2023-01-09T13:52:38.032Z,100.00
2023-01-09T13:55:20.366Z,100.00
2023-01-09T13:58:15.097Z,100.00
2023-01-09T14:00:56.820Z,100.00
2023-01-09T14:03:27.684Z,100.00
2023-01-09T14:06:17.569Z,100.00
2023-01-09T14:08:45.915Z,100.00
2023-01-09T14:11:21.916Z,100.00
2023-01-09T14:13:55.220Z,100.00
2023-01-09T14:16:27.386Z,100.00
2023-01-09T14:19:00.128Z,100.00
2023-01-09T14:21:27.629Z,100.00
2023-01-09T14:24:04.411Z,100.00
2023-01-09T14:26:48.340Z,100.00
2023-01-09T14:29:41.061Z,100.00
2023-01-09T14:32:43.483Z,100.00
2023-01-09T14:35:24.355Z,100.00
2023-01-09T14:38:02.764Z,100.00
2023-01-09T14:40:31.991Z,100.00
2023-01-09T14:43:06.457Z,100.00
2023-01-09T14:45:36.923Z,100.00
2023-01-09T14:48:10.072Z,100.00
2023-01-09T14:50:45.333Z,100.00
2023-01-09T14:53:18.241Z,100.00
2023-01-09T14:55:54.372Z,100.00
2023-01-09T14:58:27.149Z,100.00
2023-01-09T15:01:01.367Z,100.00
2023-01-09T15:03:34.490Z,100.00
2023-01-09T15:06:02.495Z,100.00
2023-01-09T15:08:30.743Z,100.00
2023-01-09T15:11:00.457Z,100.00
2023-01-09T15:13:33.814Z,100.00
2023-01-09T15:16:02.453Z,100.00
2023-01-09T15:18:33.944Z,100.00
2023-01-09T15:21:04.118Z,100.00
2023-01-09T15:23:32.728Z,100.00
2023-01-09T15:26:13.494Z,100.00
2023-01-09T15:28:45.094Z,100.00
2023-01-09T15:31:17.320Z,100.00
2023-01-09T15:33:46.031Z,100.00
2023-01-09T15:36:18.262Z,100.00
2023-01-09T15:38:46.859Z,100.00
2023-01-09T15:41:32.181Z,100.00
2023-01-09T15:43:59.463Z,100.00
2023-01-09T15:46:27.344Z,100.00
2023-01-09T15:48:57.785Z,100.00
2023-01-09T15:51:25.639Z,100.00
2023-01-09T15:53:53.956Z,100.00
2023-01-09T15:56:25.214Z,100.00
2023-01-09T15:58:53.466Z,100.00
2023-01-09T16:01:31.623Z,100.00
2023-01-09T16:04:06.604Z,100.00
2023-01-09T16:06:37.241Z,100.00
2023-01-09T16:09:05.833Z,100.00
2023-01-09T16:11:35.303Z,100.00
2023-01-09T16:14:14.394Z,100.00
2023-01-09T16:16:42.635Z,100.00
2023-01-09T16:19:34.135Z,100.00
2023-01-09T16:22:03.009Z,100.00
2023-01-09T16:24:36.948Z,100.00
2023-01-09T16:27:31.153Z,100.00
2023-01-09T16:30:00.060Z,100.00
2023-01-09T16:32:31.810Z,100.00
2023-01-09T16:35:00.820Z,100.00
2023-01-09T16:37:29.625Z,100.00
2023-01-09T16:40:26.698Z,100.00
2023-01-09T16:43:01.825Z,100.00
2023-01-09T16:45:31.189Z,100.00
2023-01-09T16:47:58.521Z,100.00
2023-01-09T16:50:26.860Z,100.00
2023-01-09T16:52:54.403Z,100.00
2023-01-09T16:55:24.457Z,100.00
2023-01-09T16:57:53.027Z,100.00
2023-01-09T17:00:23.758Z,100.00
2023-01-09T17:02:50.777Z,100.00
2023-01-09T17:05:18.030Z,100.00
2023-01-09T17:07:45.557Z,100.00
2023-01-09T17:10:22.807Z,100.00
2023-01-09T17:12:49.998Z,100.00
2023-01-09T17:15:17.945Z,100.00
2023-01-09T17:17:44.980Z,100.00
2023-01-09T17:20:20.600Z,100.00
2023-01-09T17:22:47.935Z,100.00
2023-01-09T17:25:35.615Z,100.00
2023-01-09T17:28:20.776Z,100.00
2023-01-09T17:30:48.309Z,100.00
2023-01-09T17:33:18.591Z,100.00
2023-01-09T17:35:45.838Z,100.00
2023-01-09T17:38:16.280Z,100.00
2023-01-09T17:40:44.610Z,100.00
2023-01-09T17:43:12.084Z,100.00
2023-01-09T17:45:41.603Z,100.00
2023-01-09T17:48:12.898Z,100.00
2023-01-09T17:50:40.207Z,100.00
2023-01-09T17:53:07.447Z,100.00
2023-01-09T17:55:34.885Z,100.00
2023-01-09T17:58:02.393Z,100.00
2023-01-09T18:00:32.934Z,100.00
2023-01-09T18:03:00.215Z,100.00
2023-01-09T18:05:28.418Z,100.00
2023-01-09T18:07:57.975Z,100.00
2023-01-09T18:10:28.354Z,100.00
2023-01-09T18:12:57.335Z,100.00
2023-01-09T18:15:24.962Z,100.00
2023-01-09T18:17:52.512Z,100.00
2023-01-09T18:20:19.793Z,100.00
2023-01-09T18:22:47.761Z,100.00
2023-01-09T18:25:15.174Z,100.00
2023-01-09T18:27:42.159Z,100.00
2023-01-09T18:30:12.586Z,100.00
2023-01-09T18:32:39.922Z,100.00
2023-01-09T18:35:08.961Z,100.00
2023-01-09T18:37:38.657Z,100.00
2023-01-09T18:40:08.987Z,100.00
2023-01-09T18:42:36.041Z,100.00
2023-01-09T18:45:03.162Z,100.00
2023-01-09T18:47:30.319Z,100.00
2023-01-09T18:49:57.887Z,100.00
2023-01-09T18:52:25.156Z,100.00
2023-01-09T18:54:52.433Z,100.00
2023-01-09T18:57:19.418Z,100.00
2023-01-09T18:59:46.757Z,100.00
2023-01-09T19:02:22.031Z,100.00
2023-01-09T19:04:49.478Z,100.00
2023-01-09T19:07:16.928Z,100.00
2023-01-09T19:09:44.157Z,100.00
2023-01-09T19:12:11.413Z,100.00
2023-01-09T19:14:38.569Z,100.00
2023-01-09T19:17:06.337Z,100.00
2023-01-09T19:19:35.061Z,100.00
2023-01-09T19:22:02.167Z,100.00
2023-01-09T19:24:30.570Z,100.00
2023-01-09T19:26:57.990Z,100.00
2023-01-09T19:29:25.233Z,100.00
2023-01-09T19:31:53.411Z,100.00
2023-01-09T19:34:21.000Z,100.00
2023-01-09T19:36:48.907Z,100.00
2023-01-09T19:39:16.671Z,100.00
2023-01-09T19:41:44.273Z,100.00
2023-01-09T19:44:12.052Z,100.00
2023-01-09T19:46:39.117Z,100.00
2023-01-09T19:49:06.555Z,100.00
2023-01-09T19:51:35.038Z,100.00
2023-01-09T19:56:29.827Z,100.00
2023-01-09T19:58:58.021Z,100.00
2023-01-09T20:01:27.103Z,100.00
2023-01-09T20:03:56.621Z,100.00
2023-01-09T20:06:25.670Z,100.00
2023-01-09T20:08:55.397Z,100.00
2023-01-09T20:11:23.217Z,100.00
2023-01-09T20:13:51.091Z,100.00
2023-01-09T20:16:21.304Z,100.00
2023-01-09T20:18:49.059Z,99.89
2023-01-09T20:21:22.268Z,99.77
2023-01-09T20:23:51.431Z,99.66
2023-01-09T20:26:18.999Z,99.56
2023-01-09T20:28:46.962Z,99.61
2023-01-09T20:31:16.308Z,99.68
2023-01-09T20:33:44.461Z,99.60
2023-01-09T20:36:12.403Z,99.51
2023-01-09T20:38:41.390Z,99.42
2023-01-09T20:41:22.902Z,99.21
2023-01-09T20:43:50.448Z,99.08
2023-01-09T20:46:17.951Z,99.10
2023-01-09T20:48:46.014Z,99.02
2023-01-09T20:51:13.663Z,98.96
2023-01-09T20:53:44.655Z,98.83
2023-01-09T20:56:12.562Z,98.67
2023-01-09T20:58:39.827Z,98.77
2023-01-09T21:01:10.824Z,98.56
2023-01-09T21:03:38.644Z,98.57
2023-01-09T21:06:09.520Z,98.30
2023-01-09T21:08:37.395Z,98.54
2023-01-09T21:11:05.674Z,98.44
2023-01-09T21:13:33.441Z,98.26
2023-01-09T21:16:05.627Z,98.29
2023-01-09T21:18:36.364Z,98.14
2023-01-09T21:21:08.138Z,98.12
2023-01-09T21:23:35.540Z,98.26
2023-01-09T21:26:03.074Z,98.11
2023-01-09T21:28:31.836Z,98.08
2023-01-09T21:30:58.902Z,98.01
2023-01-09T21:33:26.137Z,97.83
2023-01-09T21:35:59.074Z,97.57
2023-01-09T21:38:27.930Z,97.62
2023-01-09T21:40:55.513Z,97.58
2023-01-09T21:43:56.295Z,97.62
2023-01-09T21:46:41.173Z,97.44
2023-01-09T21:49:08.684Z,97.34
2023-01-09T21:51:38.918Z,97.32
2023-01-09T21:54:06.351Z,97.38
2023-01-09T21:56:33.723Z,97.23
2023-01-09T21:59:01.054Z,97.18
2023-01-09T22:01:28.224Z,97.10
2023-01-09T22:03:58.337Z,97.05
2023-01-09T22:06:26.827Z,96.93
2023-01-09T22:08:54.311Z,97.10
2023-01-09T22:11:21.928Z,97.02
2023-01-09T22:13:50.851Z,97.16
2023-01-09T22:16:18.995Z,97.31
2023-01-09T22:18:46.482Z,97.29
2023-01-09T22:21:14.216Z,97.24
2023-01-09T22:23:41.229Z,97.34
2023-01-09T22:26:13.063Z,97.36
2023-01-09T22:28:40.449Z,97.37
2023-01-09T22:31:11.032Z,97.38
2023-01-09T22:33:38.373Z,97.58
2023-01-09T22:36:10.249Z,97.40
2023-01-09T22:38:37.496Z,97.39
2023-01-09T22:41:04.697Z,97.26
2023-01-09T22:43:32.648Z,97.23
2023-01-09T22:46:03.218Z,97.17
2023-01-09T22:48:31.866Z,97.13
2023-01-09T22:51:01.984Z,97.03
2023-01-09T22:53:29.430Z,97.05
2023-01-09T22:55:59.828Z,97.03
2023-01-09T22:58:27.407Z,97.03
2023-01-09T23:00:54.948Z,97.01
2023-01-09T23:03:22.209Z,96.83
2023-01-09T23:05:49.957Z,96.81
2023-01-09T23:08:17.588Z,96.92
2023-01-09T23:10:45.095Z,96.82
2023-01-09T23:13:12.408Z,96.94
2023-01-09T23:15:39.365Z,96.93
2023-01-09T23:18:07.845Z,96.80
2023-01-09T23:20:34.850Z,97.02
2023-01-09T23:23:01.850Z,96.94
2023-01-09T23:25:28.946Z,96.97
2023-01-09T23:27:56.118Z,96.89
2023-01-09T23:30:23.109Z,96.96
2023-01-09T23:32:50.201Z,96.85
2023-01-09T23:35:17.846Z,96.87
2023-01-09T23:37:44.893Z,96.94
2023-01-09T23:40:13.665Z,96.86
2023-01-09T23:42:58.650Z,96.94
2023-01-09T23:45:25.912Z,97.04
2023-01-09T23:47:52.943Z,96.92
2023-01-09T23:50:20.399Z,97.02
2023-01-09T23:52:47.433Z,97.22
2023-01-09T23:55:14.927Z,97.26
2023-01-09T23:57:41.920Z,97.18
